Mendoza, Texas
Current Conditions -  °F | °C
As of 2:15 AM on Thursday 29 Jan 2015 (Local Time) from KHYI Reporting Station
Clear Clear  
Wind Chill: 12°   Ceiling: Unl
Heat Index: 12°   Visibility: 10mi
Dew Point:   Wind: 9mph
Humidity: 82%   Direction: 230°SW
Pressure: 30.14"   Gusts: NA
Location:  29.8965°N, 97.6713°W
Report Text: KHYI 290815Z 23008KT 10SM CLR 12/09 A3014 RMK AO1
Loading
Personal Weather Stations






























Interactive Weather Map New forecast layout! Learn more

10-Day Weather Forecast

Advertisements
Track Severe Weather on mobile